Time;durP1;ratioP1;P1;durP2;ratioP2;P2;SDS_P1;SDS_P2;PMS_P1;PMS_P2;Temp;Humidity;BMP_temperature;BMP_pressure;BME280_temperature;BME280_humidity;BME280_pressure;Samples;Min_cycle;Max_cycle;Signal;HPM_P1;HPM_P2
2022/01/15 00:00:49;;;;;;;288.20;28.63;;;6.50;99.90;;;;;;6252638;23;20429;-80
2022/01/15 00:03:18;;;;;;;269.13;35.57;;;6.40;99.90;;;;;;6262729;23;20401;-80
2022/01/15 00:05:52;;;;;;;145.17;21.70;;;6.40;99.90;;;;;;6252647;22;20426;-80
2022/01/15 00:08:20;;;;;;;131.60;19.77;;;6.40;99.90;;;;;;6251686;23;20430;-80
2022/01/15 00:10:48;;;;;;;93.23;17.80;;;6.30;99.90;;;;;;6250914;23;20459;-80
2022/01/15 00:13:26;;;;;;;329.73;38.40;;;6.30;99.90;;;;;;6252578;23;20394;-80
2022/01/15 00:16:04;;;;;;;218.17;23.43;;;6.30;99.90;;;;;;6224129;23;20426;-80
2022/01/15 00:18:43;;;;;;;208.20;28.90;;;6.30;99.90;;;;;;6249218;23;20432;-80
2022/01/15 00:21:13;;;;;;;194.87;26.67;;;6.30;99.90;;;;;;6225946;23;20449;-80
2022/01/15 00:23:43;;;;;;;236.43;27.40;;;6.30;99.90;;;;;;6226086;23;20409;-80
2022/01/15 00:26:11;;;;;;;158.33;27.43;;;6.30;99.90;;;;;;6262550;22;20472;-80
2022/01/15 00:28:44;;;;;;;179.43;28.17;;;6.30;99.90;;;;;;6224964;23;20464;-80
2022/01/15 00:31:12;;;;;;;235.63;28.70;;;6.30;99.90;;;;;;6224773;23;20456;-80
2022/01/15 00:33:41;;;;;;;172.37;23.93;;;6.30;99.90;;;;;;6261969;23;20448;-80
2022/01/15 00:36:16;;;;;;;179.47;28.07;;;6.30;99.90;;;;;;6253214;22;20430;-80
2022/01/15 00:38:58;;;;;;;159.90;28.70;;;6.30;99.90;;;;;;6252317;23;20404;-80
2022/01/15 00:41:39;;;;;;;162.30;27.23;;;6.30;99.90;;;;;;6254125;23;20414;-80
2022/01/15 00:44:24;;;;;;;157.57;28.37;;;6.20;99.90;;;;;;6226369;22;20441;-80
2022/01/15 00:46:58;;;;;;;221.60;38.83;;;6.20;99.90;;;;;;6263070;23;20381;-80
2022/01/15 00:49:28;;;;;;;174.47;29.80;;;6.20;99.90;;;;;;6252885;23;20422;-80
2022/01/15 00:52:01;;;;;;;251.43;33.60;;;6.20;99.90;;;;;;6225792;23;20413;-80
2022/01/15 00:54:30;;;;;;;235.97;30.17;;;6.20;99.90;;;;;;6226253;23;20491;-80
2022/01/15 00:57:00;;;;;;;243.97;31.57;;;6.20;99.90;;;;;;6226040;23;20409;-80
2022/01/15 00:59:30;;;;;;;349.83;43.67;;;6.20;99.90;;;;;;6226072;23;20420;-80
2022/01/15 01:02:02;;;;;;;186.70;27.27;;;6.20;99.90;;;;;;6253115;23;20386;-80
2022/01/15 01:04:30;;;;;;;164.50;22.70;;;6.20;99.90;;;;;;6226917;23;20434;-80
2022/01/15 01:06:59;;;;;;;231.47;38.93;;;6.20;99.90;;;;;;6225687;23;20417;-80
2022/01/15 01:09:42;;;;;;;168.67;30.33;;;6.20;99.90;;;;;;6252844;23;20433;-80
2022/01/15 01:12:26;;;;;;;185.70;36.63;;;6.10;99.90;;;;;;6225516;23;20436;-80
2022/01/15 01:20:37;;;;;;;367.97;48.30;;;6.10;99.90;;;;;;6225984;23;20456;-80
2022/01/15 01:23:04;;;;;;;274.93;44.67;;;6.10;99.90;;;;;;6226323;23;20413;-80
2022/01/15 01:25:38;;;;;;;143.80;23.30;;;6.10;99.90;;;;;;6227158;23;20967;-80
2022/01/15 01:28:10;;;;;;;124.83;26.90;;;6.10;99.90;;;;;;6228171;23;20437;-80
2022/01/15 01:30:45;;;;;;;197.47;34.70;;;6.10;99.90;;;;;;6255497;23;20425;-80
2022/01/15 01:33:30;;;;;;;134.90;34.43;;;6.00;99.90;;;;;;6227775;23;20413;-80
2022/01/15 01:36:14;;;;;;;176.83;31.60;;;6.00;99.90;;;;;;6228899;23;20757;-80
2022/01/15 01:38:50;;;;;;;146.20;27.60;;;6.00;99.90;;;;;;6228286;23;20429;-80
2022/01/15 01:41:22;;;;;;;247.70;38.70;;;6.00;99.90;;;;;;6254178;23;20394;-80
2022/01/15 01:43:55;;;;;;;176.83;36.07;;;6.00;99.90;;;;;;6265037;23;20885;-80
2022/01/15 01:49:13;;;;;;;158.23;28.67;;;6.00;99.90;;;;;;6247959;23;20767;-80
2022/01/15 01:51:43;;;;;;;227.93;33.17;;;6.00;99.90;;;;;;6227965;23;20409;-80
2022/01/15 01:54:17;;;;;;;202.80;28.60;;;5.90;99.90;;;;;;6264961;22;20386;-80
2022/01/15 01:56:48;;;;;;;223.03;30.30;;;5.90;99.90;;;;;;6228066;23;20405;-80
2022/01/15 01:59:17;;;;;;;161.40;29.13;;;5.90;99.90;;;;;;6252894;23;20436;-80
2022/01/15 02:01:47;;;;;;;203.53;36.60;;;5.90;99.90;;;;;;6227829;23;20900;-80
2022/01/15 02:04:18;;;;;;;244.47;43.33;;;5.90;99.90;;;;;;6227615;22;20414;-80
2022/01/15 02:06:46;;;;;;;272.37;34.13;;;5.90;99.90;;;;;;6228292;23;20413;-80
2022/01/15 02:09:15;;;;;;;203.93;32.60;;;5.90;99.90;;;;;;6254645;23;20437;-80
2022/01/15 02:11:43;;;;;;;146.20;24.37;;;5.90;99.90;;;;;;6227676;23;20508;-81
2022/01/15 02:14:25;;;;;;;180.80;37.90;;;5.90;99.90;;;;;;6252477;22;20418;-80
2022/01/15 02:16:53;;;;;;;81.03;21.33;;;5.90;99.90;;;;;;6254414;23;20481;-80
2022/01/15 02:19:30;;;;;;;194.30;32.63;;;5.90;99.90;;;;;;6228383;23;20426;-80
2022/01/15 02:24:44;;;;;;;148.17;27.30;;;5.80;99.90;;;;;;6255090;22;20453;-80
2022/01/15 02:27:12;;;;;;;198.37;35.43;;;5.90;99.90;;;;;;6228304;23;20441;-80
2022/01/15 02:29:40;;;;;;;231.30;35.03;;;5.90;99.90;;;;;;6252381;22;20434;-80
2022/01/15 02:32:08;;;;;;;188.47;31.13;;;5.90;99.90;;;;;;6264491;23;20464;-80
2022/01/15 02:34:38;;;;;;;285.70;48.73;;;5.90;99.90;;;;;;6264975;22;20424;-80
2022/01/15 02:37:09;;;;;;;116.30;24.33;;;5.90;99.90;;;;;;6227961;23;20460;-80
2022/01/15 02:39:54;;;;;;;245.63;35.67;;;5.90;99.90;;;;;;6254174;23;20409;-80
2022/01/15 02:42:24;;;;;;;185.97;28.93;;;5.90;99.90;;;;;;6227305;23;20406;-80
2022/01/15 02:45:22;;;;;;;222.90;33.90;;;5.90;99.90;;;;;;6254224;22;20479;-80
2022/01/15 02:48:13;;;;;;;145.00;24.33;;;5.90;99.90;;;;;;6253840;23;20425;-80
2022/01/15 02:50:44;;;;;;;198.87;37.90;;;5.90;99.90;;;;;;6227249;23;20473;-80
2022/01/15 02:53:15;;;;;;;200.73;36.77;;;5.90;99.90;;;;;;6227842;23;20508;-80
2022/01/15 02:55:44;;;;;;;232.57;46.90;;;5.90;99.90;;;;;;6227416;23;20826;-80
2022/01/15 02:58:12;;;;;;;191.63;38.13;;;5.90;99.90;;;;;;6227560;23;20447;-80
2022/01/15 03:00:44;;;;;;;139.07;26.93;;;5.80;99.90;;;;;;6252970;22;20414;-80
2022/01/15 03:03:13;;;;;;;207.23;40.83;;;5.90;99.90;;;;;;6253893;23;20418;-80
2022/01/15 03:05:46;;;;;;;310.00;43.70;;;5.90;99.90;;;;;;6254602;22;20429;-80
2022/01/15 03:08:14;;;;;;;194.77;38.33;;;5.80;99.90;;;;;;6227330;23;20406;-81
2022/01/15 03:10:45;;;;;;;236.30;34.20;;;5.80;99.90;;;;;;6252550;23;20853;-80
2022/01/15 03:13:14;;;;;;;243.20;38.23;;;5.80;99.90;;;;;;6226798;23;20444;-80
2022/01/15 03:15:43;;;;;;;174.70;28.43;;;5.80;99.90;;;;;;6227464;23;20433;-80
2022/01/15 03:18:14;;;;;;;248.47;32.47;;;5.80;99.90;;;;;;6226748;23;20421;-80
2022/01/15 03:20:46;;;;;;;231.57;40.70;;;5.80;99.90;;;;;;6226729;23;20432;-81
2022/01/15 03:23:14;;;;;;;227.87;39.60;;;5.70;99.90;;;;;;6227264;23;20656;-80
2022/01/15 03:25:43;;;;;;;135.67;30.83;;;5.70;99.90;;;;;;6226863;23;20436;-80
2022/01/15 03:28:14;;;;;;;195.73;34.73;;;5.70;99.90;;;;;;6226513;23;20881;-81
2022/01/15 03:30:42;;;;;;;253.87;46.40;;;5.70;99.90;;;;;;6251951;23;20461;-80
2022/01/15 03:33:11;;;;;;;240.97;40.13;;;5.70;99.90;;;;;;6226258;23;20500;-80
2022/01/15 03:35:40;;;;;;;283.20;41.37;;;5.70;99.90;;;;;;6253423;22;20426;-81
2022/01/15 03:38:10;;;;;;;146.17;29.63;;;5.70;99.90;;;;;;6227092;23;20416;-82
2022/01/15 03:40:38;;;;;;;300.70;42.00;;;5.70;99.90;;;;;;6226847;23;20504;-80
2022/01/15 03:43:07;;;;;;;252.37;37.73;;;5.70;99.90;;;;;;6226432;23;20414;-80
2022/01/15 03:45:36;;;;;;;173.03;33.73;;;5.70;99.90;;;;;;6226231;23;20445;-80
2022/01/15 03:48:05;;;;;;;230.10;40.00;;;5.70;99.90;;;;;;6226281;23;20452;-80
2022/01/15 03:50:34;;;;;;;119.47;28.83;;;5.70;99.90;;;;;;6225952;23;20944;-80
2022/01/15 03:53:02;;;;;;;276.93;34.47;;;5.70;99.90;;;;;;6253545;23;20410;-81
2022/01/15 03:55:32;;;;;;;287.43;42.57;;;5.70;99.90;;;;;;6226193;23;20765;-80
2022/01/15 03:58:02;;;;;;;286.83;44.10;;;5.70;99.90;;;;;;6251611;23;20441;-81
2022/01/15 04:00:30;;;;;;;145.80;22.53;;;5.70;99.90;;;;;;6262993;23;20398;-80
2022/01/15 04:02:59;;;;;;;233.10;36.80;;;5.70;99.90;;;;;;6253167;23;20478;-81
2022/01/15 04:05:28;;;;;;;249.40;46.23;;;5.70;99.90;;;;;;6252760;22;20484;-80
2022/01/15 04:07:56;;;;;;;272.37;48.60;;;5.70;99.90;;;;;;6250573;23;20416;-80
2022/01/15 04:10:25;;;;;;;225.17;35.50;;;5.70;99.90;;;;;;6224233;23;20436;-80
2022/01/15 04:12:54;;;;;;;129.10;29.20;;;5.70;99.90;;;;;;6224619;23;20520;-80
2022/01/15 04:15:23;;;;;;;165.77;31.40;;;5.70;99.90;;;;;;6260900;22;20457;-80
2022/01/15 04:17:51;;;;;;;291.77;41.40;;;5.70;99.90;;;;;;6225393;23;20751;-80
2022/01/15 04:20:22;;;;;;;140.40;33.43;;;5.70;99.90;;;;;;6226461;23;20421;-80
2022/01/15 04:22:53;;;;;;;219.60;43.57;;;5.70;99.90;;;;;;6250406;23;20411;-80
2022/01/15 04:25:25;;;;;;;151.83;31.27;;;5.70;99.90;;;;;;6252619;22;20432;-80
2022/01/15 04:28:01;;;;;;;195.20;34.87;;;5.70;99.90;;;;;;6262555;23;20374;-80
2022/01/15 04:30:35;;;;;;;164.50;32.27;;;5.70;99.90;;;;;;6252687;23;20509;-80
2022/01/15 04:33:11;;;;;;;198.83;40.30;;;5.70;99.90;;;;;;6225357;23;20410;-80
2022/01/15 04:35:43;;;;;;;225.53;47.33;;;5.70;99.90;;;;;;6225015;23;20520;-80
2022/01/15 04:38:16;;;;;;;290.83;46.03;;;5.70;99.90;;;;;;6225542;23;20788;-80
2022/01/15 04:40:46;;;;;;;231.60;41.20;;;5.70;99.90;;;;;;6251265;22;20414;-80
2022/01/15 04:43:17;;;;;;;162.50;30.90;;;5.70;99.90;;;;;;6225285;23;20452;-81
2022/01/15 04:45:47;;;;;;;267.33;39.53;;;5.70;99.90;;;;;;6225373;23;20905;-80
2022/01/15 04:48:19;;;;;;;138.57;31.40;;;5.70;99.90;;;;;;6252839;23;20390;-80
2022/01/15 04:50:47;;;;;;;213.43;38.47;;;5.70;99.90;;;;;;6224369;23;20964;-80
2022/01/15 04:53:15;;;;;;;153.83;30.70;;;5.70;99.90;;;;;;6225426;23;20513;-80
2022/01/15 04:55:45;;;;;;;238.97;39.17;;;5.70;99.90;;;;;;6250536;22;20434;-80
2022/01/15 04:58:14;;;;;;;170.47;30.77;;;5.70;99.90;;;;;;6263517;23;20397;-81
2022/01/15 05:00:46;;;;;;;125.57;26.13;;;5.70;99.90;;;;;;6252653;23;20441;-81
2022/01/15 05:03:16;;;;;;;160.07;35.47;;;5.70;99.90;;;;;;6265615;23;20693;-80
2022/01/15 05:05:44;;;;;;;112.93;29.10;;;5.70;99.90;;;;;;6227496;23;20437;-80
2022/01/15 05:08:13;;;;;;;270.10;43.93;;;5.70;99.90;;;;;;6227300;23;20471;-80
2022/01/15 05:10:46;;;;;;;236.53;36.80;;;5.70;99.90;;;;;;6253694;23;20410;-80
2022/01/15 05:13:15;;;;;;;242.07;35.10;;;5.70;99.90;;;;;;6227019;23;20972;-80
2022/01/15 05:15:45;;;;;;;151.20;32.07;;;5.70;99.90;;;;;;6226768;23;20444;-80
2022/01/15 05:18:13;;;;;;;172.93;34.23;;;5.70;99.90;;;;;;6253547;23;20469;-80
2022/01/15 05:20:44;;;;;;;175.60;36.47;;;5.70;99.90;;;;;;6227138;23;20429;-80
2022/01/15 05:23:13;;;;;;;198.83;42.57;;;5.70;99.90;;;;;;6227154;23;20494;-80
2022/01/15 05:25:41;;;;;;;139.03;31.50;;;5.70;99.90;;;;;;6252404;22;20465;-80
2022/01/15 05:28:11;;;;;;;288.80;48.33;;;5.70;99.90;;;;;;6226579;23;20424;-80
2022/01/15 05:30:39;;;;;;;121.07;31.83;;;5.70;99.90;;;;;;6227009;23;20477;-80
2022/01/15 05:33:11;;;;;;;114.57;39.10;;;5.70;99.90;;;;;;6226853;23;20441;-80
2022/01/15 05:35:39;;;;;;;163.27;35.67;;;5.70;99.90;;;;;;6252368;23;20445;-80
2022/01/15 05:38:09;;;;;;;227.63;40.70;;;5.70;99.90;;;;;;6251985;23;20416;-80
2022/01/15 05:40:38;;;;;;;184.40;41.80;;;5.80;99.90;;;;;;6226574;23;20417;-80
2022/01/15 05:43:06;;;;;;;134.20;32.73;;;5.70;99.90;;;;;;6252241;23;20795;-80
2022/01/15 05:45:34;;;;;;;182.90;29.03;;;5.70;99.90;;;;;;6227078;23;20524;-80
2022/01/15 05:48:02;;;;;;;151.73;28.53;;;5.70;99.90;;;;;;6254668;23;20440;-80
2022/01/15 05:50:32;;;;;;;169.53;37.17;;;5.70;99.90;;;;;;6227371;23;20475;-80
2022/01/15 05:53:00;;;;;;;169.93;39.23;;;5.70;99.90;;;;;;6226957;23;20463;-80
2022/01/15 05:55:29;;;;;;;284.43;42.37;;;5.70;99.90;;;;;;6226989;23;20466;-80
2022/01/15 05:57:57;;;;;;;266.20;46.77;;;5.70;99.90;;;;;;6226729;23;20422;-80
2022/01/15 06:00:25;;;;;;;204.40;35.87;;;5.70;99.90;;;;;;6225805;23;20421;-80
2022/01/15 06:02:54;;;;;;;276.87;42.67;;;5.70;99.90;;;;;;6252275;23;20414;-80
2022/01/15 06:05:22;;;;;;;155.50;29.53;;;5.70;99.90;;;;;;6226917;23;20819;-80
2022/01/15 06:07:57;;;;;;;201.97;30.93;;;5.70;99.90;;;;;;6226556;23;20410;-80
2022/01/15 06:10:25;;;;;;;177.73;31.43;;;5.70;99.90;;;;;;6226475;23;20436;-80
2022/01/15 06:12:53;;;;;;;257.73;37.73;;;5.70;99.90;;;;;;6225752;23;20438;-80
2022/01/15 06:15:21;;;;;;;173.57;38.77;;;5.70;99.90;;;;;;6226651;23;20434;-80
2022/01/15 06:17:55;;;;;;;134.27;36.07;;;5.70;99.90;;;;;;6264542;23;20424;-80
2022/01/15 06:20:24;;;;;;;276.03;43.80;;;5.70;99.90;;;;;;6226794;23;20447;-80
2022/01/15 06:22:53;;;;;;;218.50;44.80;;;5.70;99.90;;;;;;6226386;23;20449;-80
2022/01/15 06:25:24;;;;;;;165.10;40.87;;;5.70;99.90;;;;;;6226106;23;20815;-80
2022/01/15 06:27:54;;;;;;;209.23;40.57;;;5.70;99.90;;;;;;6226555;23;20418;-80
2022/01/15 06:30:24;;;;;;;144.40;31.80;;;5.70;99.90;;;;;;6253491;23;20390;-80
2022/01/15 06:32:53;;;;;;;183.83;41.10;;;5.70;99.90;;;;;;6263649;23;20452;-80
2022/01/15 06:35:26;;;;;;;67.37;26.57;;;5.70;99.90;;;;;;6226885;23;20764;-81
2022/01/15 06:37:55;;;;;;;162.60;33.03;;;5.70;99.90;;;;;;6226751;23;20445;-80
2022/01/15 06:40:24;;;;;;;250.77;43.73;;;5.70;99.90;;;;;;6250948;22;20418;-80
2022/01/15 06:42:52;;;;;;;219.07;41.13;;;5.70;99.90;;;;;;6262688;23;20405;-80
2022/01/15 06:45:20;;;;;;;183.97;37.67;;;5.70;99.90;;;;;;6225470;23;20434;-80
2022/01/15 06:47:48;;;;;;;209.97;44.33;;;5.70;99.90;;;;;;6225787;23;20472;-80
2022/01/15 06:50:16;;;;;;;190.87;39.73;;;5.70;99.90;;;;;;6262496;23;20429;-81
2022/01/15 06:52:46;;;;;;;291.27;51.63;;;5.70;99.90;;;;;;6225773;23;20504;-82
2022/01/15 06:55:16;;;;;;;248.67;42.03;;;5.70;99.90;;;;;;6226048;23;20516;-80
2022/01/15 06:57:46;;;;;;;219.43;39.77;;;5.70;99.90;;;;;;6225442;23;20418;-81
2022/01/15 07:00:15;;;;;;;223.73;42.43;;;5.70;99.90;;;;;;6226171;23;20405;-81
2022/01/15 07:02:47;;;;;;;98.07;30.40;;;5.70;99.90;;;;;;6263565;23;20379;-81
2022/01/15 07:05:20;;;;;;;237.47;42.63;;;5.70;99.90;;;;;;6251199;23;20938;-81
2022/01/15 07:07:48;;;;;;;155.70;34.00;;;5.70;99.90;;;;;;6253091;23;20417;-81
2022/01/15 07:10:18;;;;;;;277.63;41.23;;;5.70;99.90;;;;;;6226712;23;20440;-81
2022/01/15 07:12:51;;;;;;;134.43;30.27;;;5.70;99.90;;;;;;6262561;23;20414;-81
2022/01/15 07:15:21;;;;;;;153.77;33.70;;;5.70;99.90;;;;;;6225324;23;20446;-81
2022/01/15 07:17:51;;;;;;;89.33;28.17;;;5.70;99.90;;;;;;6226846;23;20413;-80
2022/01/15 07:20:21;;;;;;;152.40;40.40;;;5.70;99.90;;;;;;6225069;23;20425;-81
2022/01/15 07:22:49;;;;;;;133.67;29.00;;;5.70;99.90;;;;;;6225450;23;20422;-81
2022/01/15 07:25:19;;;;;;;216.90;43.37;;;5.70;99.90;;;;;;6227309;23;20468;-81
2022/01/15 07:27:47;;;;;;;121.57;31.03;;;5.80;99.90;;;;;;6227430;23;20421;-81
2022/01/15 07:30:18;;;;;;;180.70;45.37;;;5.70;99.90;;;;;;6237596;23;20897;-81
2022/01/15 07:32:47;;;;;;;171.80;32.07;;;5.70;99.90;;;;;;6251659;23;20766;-80
2022/01/15 07:35:16;;;;;;;140.27;32.40;;;5.70;99.90;;;;;;6253747;22;20480;-81
2022/01/15 07:37:44;;;;;;;243.37;40.20;;;5.70;99.90;;;;;;6253077;23;20440;-80
2022/01/15 07:40:13;;;;;;;169.13;35.90;;;5.80;99.90;;;;;;6226523;23;20422;-81
2022/01/15 07:42:44;;;;;;;282.77;46.13;;;5.70;99.90;;;;;;6226983;23;20416;-81
2022/01/15 07:45:17;;;;;;;114.83;36.70;;;5.70;99.90;;;;;;6253404;22;20441;-80
2022/01/15 07:47:47;;;;;;;274.60;48.30;;;5.80;99.90;;;;;;6226480;23;20413;-81
2022/01/15 07:50:23;;;;;;;183.73;37.67;;;5.80;99.90;;;;;;6227481;23;20421;-80
2022/01/15 07:52:52;;;;;;;291.80;41.90;;;5.70;99.90;;;;;;6227271;23;20433;-81
2022/01/15 07:55:21;;;;;;;215.13;38.83;;;5.80;99.90;;;;;;6264322;22;20418;-80
2022/01/15 07:58:03;;;;;;;293.53;47.90;;;5.80;99.90;;;;;;6227986;23;20428;-81
2022/01/15 08:00:32;;;;;;;203.67;42.83;;;5.80;99.90;;;;;;6230023;23;20494;-80
2022/01/15 08:03:01;;;;;;;165.10;39.40;;;5.70;99.90;;;;;;6228813;23;20912;-80
2022/01/15 08:05:30;;;;;;;244.30;50.70;;;5.80;99.90;;;;;;6228519;23;20936;-80
2022/01/15 08:07:58;;;;;;;243.80;41.17;;;5.80;99.90;;;;;;6254323;23;20418;-80
2022/01/15 08:10:26;;;;;;;224.53;41.07;;;5.80;99.90;;;;;;6266704;23;20405;-80
2022/01/15 08:12:55;;;;;;;211.43;36.83;;;5.80;99.90;;;;;;6229182;23;20457;-80
2022/01/15 08:15:25;;;;;;;194.93;41.87;;;5.80;99.90;;;;;;6265698;22;20436;-80
2022/01/15 08:17:55;;;;;;;179.40;40.47;;;5.80;99.90;;;;;;6227688;23;20416;-80
2022/01/15 08:20:26;;;;;;;202.37;44.03;;;5.80;99.90;;;;;;6228119;23;20427;-80
2022/01/15 08:22:54;;;;;;;265.37;46.17;;;5.80;99.90;;;;;;6228067;23;20468;-80
2022/01/15 08:25:24;;;;;;;229.37;40.60;;;5.80;99.90;;;;;;6228547;23;20456;-81
2022/01/15 08:27:53;;;;;;;149.63;37.60;;;5.80;99.90;;;;;;6227936;23;20508;-82
2022/01/15 08:30:23;;;;;;;283.83;47.30;;;5.80;99.90;;;;;;6253320;22;20417;-80
2022/01/15 08:32:52;;;;;;;240.83;48.37;;;5.90;99.90;;;;;;6230799;23;20913;-80
2022/01/15 08:35:20;;;;;;;169.30;38.80;;;5.90;99.90;;;;;;6229700;23;20527;-80
2022/01/15 08:37:49;;;;;;;203.87;37.03;;;5.90;99.90;;;;;;6229574;23;20421;-79
2022/01/15 08:40:19;;;;;;;196.10;38.17;;;5.90;99.90;;;;;;6229870;23;20504;-80
2022/01/15 08:42:48;;;;;;;273.37;43.63;;;5.90;99.90;;;;;;6231152;23;20406;-83
2022/01/15 08:45:17;;;;;;;281.77;45.47;;;5.90;99.90;;;;;;6266848;22;20504;-81
2022/01/15 08:47:47;;;;;;;221.33;39.37;;;5.90;99.90;;;;;;6230162;23;20448;-80
2022/01/15 08:50:16;;;;;;;162.07;40.10;;;5.90;99.90;;;;;;6266549;23;20482;-80
2022/01/15 08:52:44;;;;;;;142.07;33.33;;;6.00;99.90;;;;;;6230981;23;20418;-80
2022/01/15 08:55:15;;;;;;;139.33;34.30;;;6.00;99.90;;;;;;6229394;23;20437;-80
2022/01/15 08:57:44;;;;;;;172.73;41.10;;;6.00;99.90;;;;;;6256396;23;20425;-80
2022/01/15 09:00:15;;;;;;;173.50;43.67;;;6.00;99.90;;;;;;6255113;23;20971;-80
2022/01/15 09:02:44;;;;;;;213.67;39.47;;;6.00;99.90;;;;;;6230086;23;20417;-80
2022/01/15 09:05:14;;;;;;;289.80;42.57;;;6.10;99.90;;;;;;6229489;23;20483;-81
2022/01/15 09:07:43;;;;;;;178.93;41.20;;;6.10;99.90;;;;;;6229574;23;20498;-81
2022/01/15 09:10:11;;;;;;;229.80;42.70;;;6.10;99.90;;;;;;6229330;23;20445;-80
2022/01/15 09:12:41;;;;;;;259.25;40.15;;;6.10;99.90;;;;;;6229785;23;20417;-80
2022/01/15 09:15:29;;;;;;;229.37;40.53;;;6.10;99.90;;;;;;6229715;23;20433;-79
2022/01/15 09:17:57;;;;;;;248.43;46.47;;;6.10;99.90;;;;;;6229873;23;20753;-80
2022/01/15 09:20:27;;;;;;;174.97;41.57;;;6.10;99.90;;;;;;6230103;23;20428;-79
2022/01/15 09:22:55;;;;;;;157.50;29.83;;;6.20;99.90;;;;;;6231538;23;20417;-80
2022/01/15 09:25:25;;;;;;;172.03;36.73;;;6.20;99.90;;;;;;6258937;22;20417;-81
2022/01/15 09:30:38;;;;;;;158.50;36.37;;;6.20;99.90;;;;;;6231260;23;20418;-80
2022/01/15 09:33:07;;;;;;;174.77;35.43;;;6.20;99.90;;;;;;6231298;23;20485;-81
2022/01/15 09:35:37;;;;;;;149.53;28.30;;;6.30;99.90;;;;;;6231244;23;20443;-80
2022/01/15 09:38:06;;;;;;;212.13;38.83;;;6.30;99.90;;;;;;6231732;23;20883;-80
2022/01/15 09:40:35;;;;;;;160.90;35.67;;;6.30;99.90;;;;;;6231174;23;20413;-80
2022/01/15 09:43:04;;;;;;;205.23;39.47;;;6.40;99.90;;;;;;6230383;23;20754;-80
2022/01/15 09:45:36;;;;;;;203.97;36.27;;;6.40;99.90;;;;;;6256101;22;20460;-80
2022/01/15 09:48:07;;;;;;;251.97;43.23;;;6.40;99.90;;;;;;6256902;23;20481;-80
2022/01/15 09:50:41;;;;;;;219.20;37.17;;;6.40;99.90;;;;;;6257146;23;20441;-81
2022/01/15 09:53:11;;;;;;;275.37;40.23;;;6.50;99.90;;;;;;6231549;23;20421;-80
2022/01/15 09:55:40;;;;;;;269.60;41.97;;;6.50;99.90;;;;;;6231304;23;20932;-80
2022/01/15 09:58:08;;;;;;;157.87;30.83;;;6.50;99.90;;;;;;6231207;23;20517;-80
2022/01/15 10:00:37;;;;;;;250.33;39.97;;;6.60;99.90;;;;;;6229619;23;20413;-81
2022/01/15 10:03:05;;;;;;;187.03;36.17;;;6.60;99.90;;;;;;6230165;23;20819;-81
2022/01/15 10:05:33;;;;;;;277.77;34.33;;;6.70;99.90;;;;;;6229811;23;20433;-81
2022/01/15 10:08:06;;;;;;;385.87;58.57;;;6.70;99.90;;;;;;6229380;23;20452;-81
2022/01/15 10:10:38;;;;;;;238.57;41.43;;;6.70;99.90;;;;;;6229989;23;20412;-83
2022/01/15 10:13:15;;;;;;;286.07;36.03;;;6.70;99.90;;;;;;6257227;23;20745;-81
2022/01/15 10:15:45;;;;;;;321.77;49.17;;;6.80;99.90;;;;;;6229516;23;20496;-81
2022/01/15 10:18:25;;;;;;;291.00;42.33;;;6.80;99.90;;;;;;6228853;23;20414;-81
2022/01/15 10:20:55;;;;;;;274.90;40.60;;;6.80;99.90;;;;;;6260274;23;20417;-82
2022/01/15 10:23:25;;;;;;;220.70;35.60;;;6.80;99.90;;;;;;6230581;23;20477;-81
2022/01/15 10:26:14;;;;;;;176.30;29.60;;;6.80;99.90;;;;;;6228451;23;20448;-81
2022/01/15 10:28:57;;;;;;;259.27;29.20;;;6.80;99.90;;;;;;6229802;23;20429;-81
2022/01/15 10:31:28;;;;;;;321.33;33.33;;;6.80;99.90;;;;;;6230631;23;20429;-81
2022/01/15 10:33:58;;;;;;;242.07;39.93;;;6.80;99.90;;;;;;6230479;23;20429;-81
2022/01/15 10:36:30;;;;;;;202.07;28.07;;;6.80;99.90;;;;;;6257311;22;20456;-81
2022/01/15 10:39:16;;;;;;;257.37;33.03;;;6.90;99.90;;;;;;6230936;23;20406;-81
2022/01/15 10:41:48;;;;;;;323.77;38.67;;;6.90;99.90;;;;;;6267998;23;20378;-81
2022/01/15 10:44:37;;;;;;;331.47;39.00;;;6.90;99.90;;;;;;6230819;22;20420;-81
2022/01/15 10:47:08;;;;;;;238.47;34.10;;;6.90;99.90;;;;;;6248414;23;20410;-81
2022/01/15 10:49:38;;;;;;;334.73;37.87;;;6.90;99.90;;;;;;6229980;23;20421;-81
2022/01/15 10:52:12;;;;;;;208.30;31.13;;;6.90;99.90;;;;;;6229794;23;20452;-81
2022/01/15 10:55:01;;;;;;;328.07;43.03;;;6.90;99.90;;;;;;6229997;23;20476;-82
2022/01/15 10:57:32;;;;;;;238.50;39.73;;;6.90;99.90;;;;;;6229220;23;20733;-81
2022/01/15 11:00:12;;;;;;;300.67;37.80;;;6.90;99.90;;;;;;6229077;23;20418;-81
2022/01/15 11:02:43;;;;;;;192.47;31.07;;;6.90;99.90;;;;;;6229627;23;20426;-81
2022/01/15 11:05:33;;;;;;;249.43;32.40;;;7.00;99.90;;;;;;6256957;22;20422;-81
2022/01/15 11:08:17;;;;;;;339.57;42.03;;;7.00;99.90;;;;;;6229492;23;20419;-81
2022/01/15 11:10:52;;;;;;;203.03;30.00;;;7.00;99.90;;;;;;6229574;23;20410;-81
2022/01/15 11:13:22;;;;;;;253.30;34.50;;;7.00;99.90;;;;;;6255925;23;20951;-81
2022/01/15 11:15:54;;;;;;;391.13;47.73;;;7.10;99.90;;;;;;6255003;22;20449;-81
2022/01/15 11:18:24;;;;;;;230.10;38.20;;;7.10;99.90;;;;;;6229313;23;20874;-81
2022/01/15 11:20:54;;;;;;;179.53;35.73;;;7.10;99.90;;;;;;6254994;23;20424;-81
2022/01/15 11:23:25;;;;;;;294.23;31.73;;;7.10;99.90;;;;;;6267250;23;20383;-81
2022/01/15 11:25:57;;;;;;;139.97;26.17;;;7.10;99.90;;;;;;6266310;22;20414;-81
2022/01/15 11:28:27;;;;;;;170.53;40.73;;;7.10;99.90;;;;;;6267254;23;20405;-82
2022/01/15 11:30:58;;;;;;;249.87;38.97;;;7.10;99.90;;;;;;6253114;23;20417;-81
2022/01/15 11:33:30;;;;;;;295.23;40.13;;;7.10;99.90;;;;;;6226560;23;20410;-81
2022/01/15 11:36:00;;;;;;;176.30;28.67;;;7.20;99.90;;;;;;6225956;23;20471;-81
2022/01/15 11:38:43;;;;;;;135.90;23.03;;;7.20;99.90;;;;;;6262901;23;20399;-82
2022/01/15 11:41:41;;;;;;;122.20;23.43;;;7.20;99.90;;;;;;6228149;23;20429;-83
2022/01/15 11:44:17;;;;;;;251.63;39.70;;;7.20;99.90;;;;;;6147661;22;20427;-81
2022/01/15 11:46:48;;;;;;;171.30;25.13;;;7.20;99.90;;;;;;6230893;23;20443;-81
2022/01/15 11:49:31;;;;;;;322.87;43.63;;;7.20;99.90;;;;;;6230211;23;20414;-81
2022/01/15 11:52:31;;;;;;;275.13;44.03;;;7.20;99.90;;;;;;6229566;23;20900;-81
2022/01/15 11:55:20;;;;;;;316.97;39.40;;;7.20;99.90;;;;;;6229456;23;20478;-81
2022/01/15 11:57:59;;;;;;;269.33;35.40;;;7.20;99.90;;;;;;6230142;23;20411;-81
2022/01/15 12:00:35;;;;;;;141.00;34.63;;;7.20;99.90;;;;;;6255052;23;20532;-81
2022/01/15 12:03:11;;;;;;;305.97;42.37;;;7.10;99.90;;;;;;6232375;23;20492;-81
2022/01/15 12:05:58;;;;;;;391.13;56.23;;;7.10;99.90;;;;;;6225929;23;20917;-81
2022/01/15 12:08:34;;;;;;;360.00;50.43;;;7.10;99.90;;;;;;6230490;23;20408;-81
2022/01/15 12:11:08;;;;;;;331.27;34.17;;;7.10;99.90;;;;;;6230246;23;20463;-81
2022/01/15 12:13:48;;;;;;;360.70;45.20;;;7.10;99.90;;;;;;6254798;23;20757;-81
2022/01/15 12:16:37;;;;;;;136.67;23.87;;;7.10;99.90;;;;;;6254933;23;20960;-81
2022/01/15 12:19:06;;;;;;;215.60;26.77;;;7.10;99.90;;;;;;6229739;23;20417;-81
2022/01/15 12:21:57;;;;;;;85.13;19.03;;;7.00;99.90;;;;;;6255130;23;20786;-81
2022/01/15 12:24:53;;;;;;;341.57;42.67;;;7.10;99.90;;;;;;6229830;22;20441;-82
2022/01/15 12:27:27;;;;;;;405.67;38.17;;;7.10;99.90;;;;;;6255712;23;20402;-81
2022/01/15 12:30:05;;;;;;;440.87;50.93;;;7.10;99.90;;;;;;6231109;23;20409;-82
2022/01/15 12:32:36;;;;;;;227.93;28.87;;;7.10;99.90;;;;;;6229601;23;20478;-81
2022/01/15 12:35:05;;;;;;;152.50;29.33;;;7.10;99.90;;;;;;6230095;23;20442;-81
2022/01/15 12:37:33;;;;;;;307.20;34.53;;;7.10;99.90;;;;;;6267048;23;20391;-81
2022/01/15 12:40:05;;;;;;;371.93;51.23;;;7.20;99.90;;;;;;6231051;23;20409;-81
2022/01/15 12:42:34;;;;;;;272.90;35.80;;;7.10;99.90;;;;;;6257102;23;20394;-81
2022/01/15 12:45:05;;;;;;;519.23;65.13;;;7.20;99.90;;;;;;6266890;22;20414;-81
2022/01/15 12:47:45;;;;;;;400.90;53.87;;;7.20;99.90;;;;;;6267451;23;20386;-81
2022/01/15 12:50:15;;;;;;;349.33;55.53;;;7.20;99.90;;;;;;6230275;23;20414;-81
2022/01/15 12:52:44;;;;;;;217.40;44.23;;;7.20;99.90;;;;;;6230953;23;20430;-81
2022/01/15 12:55:12;;;;;;;174.87;47.00;;;7.20;99.90;;;;;;6229918;23;20785;-81
2022/01/15 12:57:44;;;;;;;285.90;35.90;;;7.20;99.90;;;;;;6228023;23;20413;-80
2022/01/15 13:00:19;;;;;;;203.70;29.80;;;7.20;99.90;;;;;;6229175;23;20412;-81
2022/01/15 13:02:48;;;;;;;245.53;49.50;;;7.20;99.90;;;;;;6255127;23;20505;-81
2022/01/15 13:05:19;;;;;;;385.50;47.20;;;7.20;99.90;;;;;;6230501;23;20516;-81